Time;durP1;ratioP1;P1;durP2;ratioP2;P2;SDS_P1;SDS_P2;PMS_P1;PMS_P2;Temp;Humidity;BMP_temperature;BMP_pressure;BME280_temperature;BME280_humidity;BME280_pressure;Samples;Min_cycle;Max_cycle;Signal;HPM_P1;HPM_P2
2024/02/18 00:01:35;;;;;;;13.83;4.97;;;;;;;;;;4984527;28;20254;-81
2024/02/18 00:04:01;;;;;;;13.03;5.27;;;;;;;;;;5001276;28;20259;-81
2024/02/18 00:06:29;;;;;;;13.13;4.60;;;;;;;;;;4990088;28;20244;-82
2024/02/18 00:08:57;;;;;;;12.00;5.00;;;;;;;;;;4996445;28;20224;-82
2024/02/18 00:11:23;;;;;;;13.03;4.80;;;;;;;;;;5004928;28;20616;-82
2024/02/18 00:13:48;;;;;;;12.00;4.50;;;;;;;;;;4982154;28;20212;-81
2024/02/18 00:16:18;;;;;;;10.83;4.50;;;;;;;;;;4996279;28;20231;-82
2024/02/18 00:18:44;;;;;;;15.27;4.93;;;;;;;;;;4984026;28;20232;-82
2024/02/18 00:21:16;;;;;;;8.47;4.43;;;;;;;;;;4999224;28;20220;-81
2024/02/18 00:23:47;;;;;;;20.00;5.50;;;;;;;;;;4966992;28;20232;-82
2024/02/18 00:26:13;;;;;;;12.23;5.00;;;;;;;;;;4984181;28;20251;-79
2024/02/18 00:28:41;;;;;;;15.17;5.93;;;;;;;;;;5006225;28;20212;-79
2024/02/18 00:31:07;;;;;;;14.40;5.80;;;;;;;;;;4976391;28;20224;-81
2024/02/18 00:33:34;;;;;;;16.30;5.90;;;;;;;;;;4992561;28;20217;-80
2024/02/18 00:36:00;;;;;;;11.80;5.60;;;;;;;;;;4996646;28;20311;-82
2024/02/18 00:38:28;;;;;;;12.50;5.60;;;;;;;;;;4989752;28;21007;-80
2024/02/18 00:40:58;;;;;;;16.23;6.83;;;;;;;;;;4967479;28;20716;-79
2024/02/18 00:43:23;;;;;;;13.50;5.90;;;;;;;;;;4982697;28;20768;-80
2024/02/18 00:45:49;;;;;;;16.63;5.07;;;;;;;;;;4978131;28;20299;-81
2024/02/18 00:48:17;;;;;;;10.43;4.70;;;;;;;;;;4984813;28;20217;-81
2024/02/18 00:50:43;;;;;;;16.27;5.90;;;;;;;;;;5004794;28;20274;-82
2024/02/18 00:53:08;;;;;;;16.67;7.97;;;;;;;;;;4957014;28;20584;-80
2024/02/18 00:55:34;;;;;;;15.47;5.10;;;;;;;;;;4987723;28;20243;-79
2024/02/18 00:58:02;;;;;;;15.20;5.60;;;;;;;;;;4998705;28;20591;-82
2024/02/18 01:00:27;;;;;;;15.97;5.57;;;;;;;;;;4961504;28;20266;-81
2024/02/18 01:02:55;;;;;;;12.47;5.83;;;;;;;;;;4984003;28;20212;-82
2024/02/18 01:05:21;;;;;;;12.50;5.83;;;;;;;;;;4976775;28;20324;-81
2024/02/18 01:07:46;;;;;;;15.60;7.10;;;;;;;;;;4984000;28;20254;-81
2024/02/18 01:10:12;;;;;;;14.40;4.83;;;;;;;;;;4995794;28;20224;-81
2024/02/18 01:12:37;;;;;;;15.10;5.30;;;;;;;;;;4965846;28;20220;-81
2024/02/18 01:15:06;;;;;;;12.70;7.33;;;;;;;;;;4984547;28;20225;-80
2024/02/18 01:17:32;;;;;;;17.80;7.23;;;;;;;;;;4983059;28;20631;-81
2024/02/18 01:19:57;;;;;;;15.27;6.63;;;;;;;;;;4981995;28;20212;-79
2024/02/18 01:22:26;;;;;;;13.93;6.80;;;;;;;;;;4981059;28;20282;-81
2024/02/18 01:24:51;;;;;;;17.23;6.93;;;;;;;;;;4983865;28;20236;-80
2024/02/18 01:27:18;;;;;;;19.97;6.83;;;;;;;;;;4981698;28;20817;-81
2024/02/18 01:29:43;;;;;;;13.03;6.40;;;;;;;;;;4983178;28;20223;-81
2024/02/18 01:32:09;;;;;;;18.53;6.13;;;;;;;;;;4982617;28;20211;-81
2024/02/18 01:34:34;;;;;;;12.37;5.30;;;;;;;;;;4969873;28;20228;-84
2024/02/18 01:37:00;;;;;;;15.83;5.73;;;;;;;;;;4982515;28;20219;-79
2024/02/18 01:39:26;;;;;;;9.83;5.00;;;;;;;;;;4976668;28;20220;-82
2024/02/18 01:41:51;;;;;;;13.13;5.20;;;;;;;;;;4998831;28;20221;-82
2024/02/18 01:44:22;;;;;;;11.43;5.40;;;;;;;;;;4974498;28;20220;-82
2024/02/18 01:46:48;;;;;;;13.27;5.60;;;;;;;;;;4981856;28;20227;-82
2024/02/18 01:49:13;;;;;;;13.77;5.13;;;;;;;;;;4982513;28;20217;-81
2024/02/18 01:51:39;;;;;;;10.63;5.17;;;;;;;;;;4993947;28;20232;-81
2024/02/18 01:54:04;;;;;;;13.93;5.37;;;;;;;;;;4975088;28;20220;-82
2024/02/18 01:56:30;;;;;;;9.40;4.50;;;;;;;;;;4982654;28;20228;-82
2024/02/18 01:58:58;;;;;;;9.63;4.90;;;;;;;;;;4981419;28;20223;-82
2024/02/18 02:01:24;;;;;;;15.93;5.63;;;;;;;;;;4991254;28;20238;-82
2024/02/18 02:03:52;;;;;;;11.20;5.87;;;;;;;;;;4985014;28;20248;-83
2024/02/18 02:06:17;;;;;;;12.17;5.63;;;;;;;;;;4983318;28;20259;-81
2024/02/18 02:08:48;;;;;;;16.67;5.87;;;;;;;;;;4986761;28;20977;-82
2024/02/18 02:11:14;;;;;;;14.57;5.60;;;;;;;;;;5002745;28;20307;-81
2024/02/18 02:13:39;;;;;;;9.83;5.13;;;;;;;;;;4987492;28;20271;-82
2024/02/18 02:16:08;;;;;;;13.47;6.37;;;;;;;;;;4990487;28;20227;-81
2024/02/18 02:18:38;;;;;;;15.57;5.93;;;;;;;;;;4969671;28;20223;-80
2024/02/18 02:21:04;;;;;;;10.03;6.00;;;;;;;;;;4979329;28;20220;-79
2024/02/18 02:23:38;;;;;;;9.63;5.93;;;;;;;;;;4966710;28;20247;-81
2024/02/18 02:26:05;;;;;;;10.17;6.27;;;;;;;;;;5008014;28;20861;-79
2024/02/18 02:28:36;;;;;;;11.13;6.27;;;;;;;;;;4977632;28;20304;-81
2024/02/18 02:31:02;;;;;;;11.20;6.83;;;;;;;;;;4980592;28;20311;-82
2024/02/18 02:33:28;;;;;;;14.03;6.73;;;;;;;;;;4964079;28;20219;-80
2024/02/18 02:35:53;;;;;;;10.07;6.50;;;;;;;;;;4979066;28;20280;-80
2024/02/18 02:38:19;;;;;;;12.23;6.93;;;;;;;;;;4966563;28;20222;-80
2024/02/18 02:40:47;;;;;;;14.10;7.10;;;;;;;;;;4966283;28;20608;-79
2024/02/18 02:43:16;;;;;;;14.23;7.13;;;;;;;;;;4984440;28;20232;-81
2024/02/18 02:45:42;;;;;;;15.57;7.40;;;;;;;;;;4981163;28;20236;-81
2024/02/18 02:48:07;;;;;;;14.63;7.80;;;;;;;;;;4975923;28;20221;-82
2024/02/18 02:50:38;;;;;;;12.57;6.10;;;;;;;;;;4987203;28;20244;-80
2024/02/18 02:53:06;;;;;;;12.17;6.40;;;;;;;;;;4969192;28;20419;-80
2024/02/18 02:55:31;;;;;;;12.53;7.07;;;;;;;;;;4985732;28;20240;-78
2024/02/18 02:57:57;;;;;;;11.67;6.60;;;;;;;;;;4963943;28;20286;-81
2024/02/18 03:00:23;;;;;;;11.80;6.87;;;;;;;;;;4970565;28;20228;-78
2024/02/18 03:02:48;;;;;;;9.97;6.53;;;;;;;;;;5006271;28;20877;-81
2024/02/18 03:05:14;;;;;;;15.53;6.93;;;;;;;;;;4979565;28;20231;-79
2024/02/18 03:07:44;;;;;;;10.03;6.13;;;;;;;;;;4976417;28;20244;-81
2024/02/18 03:10:12;;;;;;;15.80;7.37;;;;;;;;;;5002657;28;20239;-79
2024/02/18 03:12:37;;;;;;;13.70;7.60;;;;;;;;;;4996085;28;20943;-82
2024/02/18 03:15:05;;;;;;;9.70;6.03;;;;;;;;;;4989811;28;20224;-80
2024/02/18 03:17:35;;;;;;;12.17;6.40;;;;;;;;;;4960552;28;20225;-79
2024/02/18 03:20:00;;;;;;;11.57;5.90;;;;;;;;;;4999843;28;20228;-80
2024/02/18 03:22:26;;;;;;;14.43;7.40;;;;;;;;;;4980830;28;20244;-82
2024/02/18 03:24:51;;;;;;;13.00;6.60;;;;;;;;;;4970315;28;20642;-81
2024/02/18 03:27:19;;;;;;;10.13;6.70;;;;;;;;;;4994890;28;20228;-79
2024/02/18 03:29:45;;;;;;;8.97;7.10;;;;;;;;;;4985615;28;20709;-78
2024/02/18 03:32:11;;;;;;;9.23;6.50;;;;;;;;;;4986077;28;20232;-80
2024/02/18 03:34:36;;;;;;;12.43;6.30;;;;;;;;;;4986083;28;20234;-80
2024/02/18 03:37:02;;;;;;;9.90;6.83;;;;;;;;;;4993193;28;20217;-81
2024/02/18 03:39:29;;;;;;;8.70;6.70;;;;;;;;;;4984265;28;20284;-79
2024/02/18 03:42:00;;;;;;;10.10;7.30;;;;;;;;;;5012390;28;20999;-80
2024/02/18 03:44:32;;;;;;;13.10;7.63;;;;;;;;;;5003346;28;20224;-81
2024/02/18 03:47:00;;;;;;;13.37;8.00;;;;;;;;;;4997906;28;20227;-80
2024/02/18 03:49:29;;;;;;;13.40;8.37;;;;;;;;;;4985391;28;20225;-80
2024/02/18 03:51:55;;;;;;;13.50;9.10;;;;;;;;;;4980489;28;20224;-79
2024/02/18 03:54:21;;;;;;;13.17;9.23;;;;;;;;;;4985126;28;20739;-82
2024/02/18 03:56:46;;;;;;;14.10;9.87;;;;;;;;;;4989981;28;20219;-81
2024/02/18 04:02:59;;;;;;;18.77;10.10;;;;;;;;;;5024003;28;20244;-80
2024/02/18 04:05:32;;;;;;;14.17;10.57;;;;;;;;;;4992272;28;20718;-82
2024/02/18 04:08:00;;;;;;;16.60;11.03;;;;;;;;;;5000572;28;20228;-81
2024/02/18 04:10:30;;;;;;;17.60;10.97;;;;;;;;;;5002544;28;20211;-81
2024/02/18 04:12:55;;;;;;;16.27;11.80;;;;;;;;;;4967819;28;20728;-81
2024/02/18 04:15:22;;;;;;;13.73;11.33;;;;;;;;;;4993612;28;20225;-80
2024/02/18 04:17:51;;;;;;;17.03;12.50;;;;;;;;;;4969140;28;21955;-82
2024/02/18 04:20:16;;;;;;;17.20;12.00;;;;;;;;;;4974435;28;20316;-82
2024/02/18 04:22:42;;;;;;;19.90;12.77;;;;;;;;;;4988665;28;20212;-82
2024/02/18 04:25:13;;;;;;;20.73;14.00;;;;;;;;;;5007629;28;20224;-81
2024/02/18 04:27:41;;;;;;;19.07;14.30;;;;;;;;;;4969416;28;20306;-82
2024/02/18 04:30:07;;;;;;;18.47;14.53;;;;;;;;;;5003778;28;20235;-81
2024/02/18 04:32:38;;;;;;;25.97;15.17;;;;;;;;;;4983289;28;20277;-81
2024/02/18 04:35:04;;;;;;;23.03;14.77;;;;;;;;;;4999315;28;20307;-79
2024/02/18 04:37:31;;;;;;;17.40;14.37;;;;;;;;;;4963207;28;20276;-81
2024/02/18 04:39:57;;;;;;;20.73;14.73;;;;;;;;;;5006937;28;20277;-79
2024/02/18 04:42:23;;;;;;;22.47;14.77;;;;;;;;;;4979096;28;20286;-81
2024/02/18 04:44:51;;;;;;;18.93;14.47;;;;;;;;;;4964466;28;20220;-81
2024/02/18 04:47:16;;;;;;;18.03;13.43;;;;;;;;;;4971641;28;20650;-82
2024/02/18 04:49:42;;;;;;;20.70;14.30;;;;;;;;;;4981402;28;20232;-82
2024/02/18 04:52:10;;;;;;;16.37;13.10;;;;;;;;;;4958029;28;20229;-80
2024/02/18 04:54:43;;;;;;;17.43;14.20;;;;;;;;;;4994928;28;20229;-80
2024/02/18 04:57:08;;;;;;;18.63;13.03;;;;;;;;;;5001820;28;20308;-81
2024/02/18 04:59:36;;;;;;;17.60;13.17;;;;;;;;;;4985388;28;20601;-80
2024/02/18 05:02:02;;;;;;;22.57;14.27;;;;;;;;;;4988163;28;20278;-81
2024/02/18 05:04:31;;;;;;;20.03;13.77;;;;;;;;;;4960378;28;20232;-80
2024/02/18 05:06:56;;;;;;;20.60;13.57;;;;;;;;;;4974392;28;20212;-79
2024/02/18 05:09:25;;;;;;;16.80;12.73;;;;;;;;;;4987211;28;20231;-79
2024/02/18 05:11:52;;;;;;;22.07;14.33;;;;;;;;;;4980142;28;20674;-82
2024/02/18 05:14:20;;;;;;;17.37;13.87;;;;;;;;;;5005639;28;20269;-80
2024/02/18 05:16:48;;;;;;;19.03;14.27;;;;;;;;;;4984478;28;20970;-81
2024/02/18 05:19:17;;;;;;;18.90;13.93;;;;;;;;;;4983375;28;20223;-79
2024/02/18 05:21:42;;;;;;;20.70;13.97;;;;;;;;;;4986432;28;20358;-82
2024/02/18 05:24:11;;;;;;;18.03;14.43;;;;;;;;;;4980963;28;20226;-81
2024/02/18 05:26:39;;;;;;;18.37;15.17;;;;;;;;;;4981545;28;20220;-80
2024/02/18 05:29:06;;;;;;;18.33;13.70;;;;;;;;;;4997735;28;20239;-82
2024/02/18 05:31:31;;;;;;;18.77;14.60;;;;;;;;;;4997967;28;20697;-82
2024/02/18 05:33:57;;;;;;;21.70;14.60;;;;;;;;;;4973624;28;20212;-81
2024/02/18 05:36:22;;;;;;;16.80;13.30;;;;;;;;;;4980845;28;20237;-81
2024/02/18 05:38:53;;;;;;;20.57;14.83;;;;;;;;;;4982395;28;20228;-82
2024/02/18 05:41:18;;;;;;;19.93;14.47;;;;;;;;;;4977109;28;20221;-82
2024/02/18 05:43:44;;;;;;;21.90;15.50;;;;;;;;;;5000323;28;20317;-81
2024/02/18 05:46:15;;;;;;;22.03;15.67;;;;;;;;;;4967467;28;20223;-80
2024/02/18 05:48:43;;;;;;;21.77;15.53;;;;;;;;;;5010921;28;20224;-81
2024/02/18 05:51:08;;;;;;;21.53;16.23;;;;;;;;;;4979793;28;20954;-81
2024/02/18 05:53:36;;;;;;;25.20;16.60;;;;;;;;;;4991485;28;20229;-82
2024/02/18 05:56:04;;;;;;;24.60;16.03;;;;;;;;;;4996687;28;20303;-82
2024/02/18 05:58:32;;;;;;;21.97;15.80;;;;;;;;;;4977442;28;20688;-82
2024/02/18 06:00:59;;;;;;;23.10;16.57;;;;;;;;;;4998734;28;20239;-80
2024/02/18 06:03:27;;;;;;;22.60;17.10;;;;;;;;;;4965504;28;20724;-81
2024/02/18 06:05:58;;;;;;;23.40;17.67;;;;;;;;;;4986048;28;20276;-81
2024/02/18 06:08:26;;;;;;;24.97;18.67;;;;;;;;;;4976495;28;20338;-81
2024/02/18 06:10:52;;;;;;;21.83;17.50;;;;;;;;;;4986852;28;20705;-80
2024/02/18 06:13:20;;;;;;;27.80;18.30;;;;;;;;;;4992977;28;20216;-79
2024/02/18 06:15:46;;;;;;;25.23;18.23;;;;;;;;;;4959871;28;20229;-80
2024/02/18 06:18:12;;;;;;;27.53;18.57;;;;;;;;;;4977152;28;20212;-81
2024/02/18 06:20:38;;;;;;;25.40;19.13;;;;;;;;;;4995783;28;20693;-81
2024/02/18 06:23:04;;;;;;;25.40;18.63;;;;;;;;;;4975975;28;20232;-79
2024/02/18 06:25:35;;;;;;;30.03;20.20;;;;;;;;;;4961906;28;20285;-81
2024/02/18 06:28:07;;;;;;;31.07;19.80;;;;;;;;;;4983071;28;20355;-78
2024/02/18 06:30:34;;;;;;;28.10;19.67;;;;;;;;;;4990534;28;20258;-81
2024/02/18 06:33:00;;;;;;;32.73;20.23;;;;;;;;;;4978574;28;20224;-81
2024/02/18 06:35:27;;;;;;;34.53;20.57;;;;;;;;;;4975272;28;20295;-82
2024/02/18 06:37:58;;;;;;;30.70;20.87;;;;;;;;;;4986267;28;20224;-82
2024/02/18 06:40:24;;;;;;;29.23;20.50;;;;;;;;;;5004128;28;20224;-82
2024/02/18 06:42:52;;;;;;;31.27;19.93;;;;;;;;;;4986566;28;20224;-81
2024/02/18 06:45:18;;;;;;;31.73;20.40;;;;;;;;;;4997708;28;20231;-81
2024/02/18 06:47:47;;;;;;;30.60;20.53;;;;;;;;;;4970642;28;20277;-81
2024/02/18 06:50:14;;;;;;;32.93;20.70;;;;;;;;;;4988504;28;20227;-81
2024/02/18 06:52:39;;;;;;;32.20;21.63;;;;;;;;;;4988682;28;20346;-80
2024/02/18 06:55:05;;;;;;;33.17;20.73;;;;;;;;;;4991835;28;20212;-80
2024/02/18 06:57:36;;;;;;;34.13;21.23;;;;;;;;;;4988847;28;20243;-80
2024/02/18 07:00:04;;;;;;;30.23;20.43;;;;;;;;;;4988878;28;20231;-81
2024/02/18 07:02:29;;;;;;;35.63;22.60;;;;;;;;;;5000478;28;20268;-80
2024/02/18 07:04:57;;;;;;;29.93;20.63;;;;;;;;;;4970938;28;20831;-79
2024/02/18 07:07:23;;;;;;;32.80;21.87;;;;;;;;;;4964012;28;20301;-80
2024/02/18 07:09:51;;;;;;;34.00;22.27;;;;;;;;;;4962346;28;20243;-80
2024/02/18 07:12:21;;;;;;;35.87;22.67;;;;;;;;;;4978592;28;20221;-80
2024/02/18 07:14:47;;;;;;;33.27;21.97;;;;;;;;;;4970812;28;20220;-80
2024/02/18 07:17:19;;;;;;;33.17;22.60;;;;;;;;;;4987820;28;20230;-80
2024/02/18 07:19:52;;;;;;;33.50;22.73;;;;;;;;;;4991718;28;20219;-81
2024/02/18 07:22:18;;;;;;;35.33;22.93;;;;;;;;;;5002768;28;20235;-82
2024/02/18 07:24:46;;;;;;;32.33;22.00;;;;;;;;;;4991339;28;20229;-81
2024/02/18 07:27:12;;;;;;;32.63;21.97;;;;;;;;;;4988596;28;20712;-81
2024/02/18 07:29:40;;;;;;;35.57;22.10;;;;;;;;;;5000654;28;20221;-80
2024/02/18 07:32:06;;;;;;;31.67;21.30;;;;;;;;;;5005498;28;20244;-81
2024/02/18 07:34:34;;;;;;;35.27;21.37;;;;;;;;;;4984468;28;20229;-80
2024/02/18 07:37:00;;;;;;;28.90;21.33;;;;;;;;;;4970939;28;20278;-81
2024/02/18 07:39:29;;;;;;;32.93;20.60;;;;;;;;;;5020388;28;20669;-81
2024/02/18 07:41:57;;;;;;;32.93;22.30;;;;;;;;;;4993054;28;20236;-81
2024/02/18 07:44:25;;;;;;;31.90;21.53;;;;;;;;;;5010206;28;20344;-81
2024/02/18 07:46:54;;;;;;;32.70;21.43;;;;;;;;;;4977599;28;20217;-81
2024/02/18 07:49:22;;;;;;;30.43;20.27;;;;;;;;;;4971350;28;20263;-82
2024/02/18 07:51:48;;;;;;;30.33;21.50;;;;;;;;;;4986133;28;20238;-81
2024/02/18 07:54:14;;;;;;;29.43;19.90;;;;;;;;;;4966357;28;20790;-82
2024/02/18 07:56:48;;;;;;;30.53;20.63;;;;;;;;;;4976226;28;20694;-81
2024/02/18 07:59:14;;;;;;;30.57;21.10;;;;;;;;;;5014160;28;20213;-81
2024/02/18 08:01:44;;;;;;;27.77;20.23;;;;;;;;;;4994679;28;20220;-82
2024/02/18 08:04:12;;;;;;;27.83;20.47;;;;;;;;;;4977860;28;20229;-82
2024/02/18 08:06:40;;;;;;;27.37;19.60;;;;;;;;;;4983417;28;20819;-79
2024/02/18 08:09:11;;;;;;;26.10;19.50;;;;;;;;;;4976998;28;20220;-80
2024/02/18 08:11:36;;;;;;;26.07;18.00;;;;;;;;;;4976044;28;20232;-81
2024/02/18 08:14:02;;;;;;;26.37;18.87;;;;;;;;;;4994901;28;20239;-83
2024/02/18 08:16:28;;;;;;;25.87;17.73;;;;;;;;;;4993119;28;20525;-81
2024/02/18 08:18:55;;;;;;;24.67;18.50;;;;;;;;;;4981283;28;20220;-82
2024/02/18 08:21:21;;;;;;;25.83;18.57;;;;;;;;;;4982782;28;20224;-82
2024/02/18 08:23:49;;;;;;;25.43;18.07;;;;;;;;;;4968080;28;20228;-83
2024/02/18 08:26:22;;;;;;;23.23;17.57;;;;;;;;;;5007486;28;20235;-82
2024/02/18 08:28:47;;;;;;;23.83;17.83;;;;;;;;;;4961555;28;20227;-80
2024/02/18 08:31:13;;;;;;;21.10;17.80;;;;;;;;;;4998676;28;20220;-82
2024/02/18 08:33:38;;;;;;;26.53;17.93;;;;;;;;;;4960694;28;20211;-80
2024/02/18 08:36:06;;;;;;;24.00;18.60;;;;;;;;;;4979075;28;20700;-79
2024/02/18 08:38:34;;;;;;;22.83;17.40;;;;;;;;;;4982064;28;20232;-82
2024/02/18 08:41:04;;;;;;;22.67;17.80;;;;;;;;;;4983719;28;20221;-83
2024/02/18 08:43:29;;;;;;;24.27;16.47;;;;;;;;;;4968254;28;20278;-80
2024/02/18 08:45:55;;;;;;;22.73;16.83;;;;;;;;;;4994892;28;20706;-80
2024/02/18 08:48:23;;;;;;;25.87;17.40;;;;;;;;;;4974684;28;20263;-82
2024/02/18 08:50:49;;;;;;;21.70;16.33;;;;;;;;;;4994084;28;20216;-80
2024/02/18 08:53:15;;;;;;;22.13;16.00;;;;;;;;;;4958031;28;20217;-81
2024/02/18 08:55:43;;;;;;;21.03;14.77;;;;;;;;;;4957732;28;20217;-80
2024/02/18 08:58:08;;;;;;;20.97;16.00;;;;;;;;;;4981235;28;20216;-81
2024/02/18 09:00:37;;;;;;;18.83;15.27;;;;;;;;;;4994086;28;20893;-83
2024/02/18 09:03:10;;;;;;;19.20;15.73;;;;;;;;;;4991815;28;20227;-81
2024/02/18 09:05:38;;;;;;;19.57;14.43;;;;;;;;;;4961567;28;20291;-80
2024/02/18 09:08:04;;;;;;;20.00;15.80;;;;;;;;;;4996796;28;20236;-80
2024/02/18 09:10:29;;;;;;;17.40;14.10;;;;;;;;;;4976266;28;20326;-79
2024/02/18 09:13:01;;;;;;;18.03;14.83;;;;;;;;;;4983529;28;20282;-81
2024/02/18 09:15:29;;;;;;;17.60;14.70;;;;;;;;;;4969779;28;20646;-79
2024/02/18 09:17:56;;;;;;;20.67;15.17;;;;;;;;;;5005863;28;20228;-78
2024/02/18 09:20:23;;;;;;;17.80;13.50;;;;;;;;;;4968047;28;20224;-80
2024/02/18 09:22:52;;;;;;;19.00;13.53;;;;;;;;;;4980502;28;20988;-79
2024/02/18 09:25:20;;;;;;;18.73;14.13;;;;;;;;;;4997909;28;20224;-80
2024/02/18 09:27:45;;;;;;;18.03;12.87;;;;;;;;;;5004150;28;20279;-82
2024/02/18 09:30:18;;;;;;;18.87;13.30;;;;;;;;;;4985912;28;20260;-81
2024/02/18 09:32:46;;;;;;;15.97;12.77;;;;;;;;;;4984108;28;20224;-80
2024/02/18 09:35:14;;;;;;;18.07;13.83;;;;;;;;;;4961844;28;20224;-82
2024/02/18 09:37:40;;;;;;;16.67;12.67;;;;;;;;;;4983992;28;20219;-81
2024/02/18 09:40:09;;;;;;;16.47;13.00;;;;;;;;;;4984597;28;20254;-80
2024/02/18 09:42:40;;;;;;;15.77;12.90;;;;;;;;;;5002382;28;20212;-80
2024/02/18 09:45:11;;;;;;;17.80;13.40;;;;;;;;;;4978504;28;20232;-80
2024/02/18 09:47:40;;;;;;;17.97;13.17;;;;;;;;;;4999174;28;20239;-81
2024/02/18 09:50:09;;;;;;;18.03;14.27;;;;;;;;;;4970529;28;20285;-81
2024/02/18 09:52:44;;;;;;;16.90;12.70;;;;;;;;;;4973369;28;20216;-80
2024/02/18 09:55:14;;;;;;;15.53;12.17;;;;;;;;;;4997372;28;20219;-81
2024/02/18 09:57:42;;;;;;;16.50;13.73;;;;;;;;;;4963498;28;20225;-79
2024/02/18 10:00:11;;;;;;;13.87;12.33;;;;;;;;;;4968666;28;20212;-79
2024/02/18 10:02:41;;;;;;;15.33;12.23;;;;;;;;;;4979779;28;20220;-79
2024/02/18 10:05:12;;;;;;;15.17;12.03;;;;;;;;;;5009707;28;20236;-80
2024/02/18 10:07:42;;;;;;;16.37;12.20;;;;;;;;;;5003876;28;20231;-81
2024/02/18 10:10:10;;;;;;;17.10;12.77;;;;;;;;;;4984949;28;20220;-80
2024/02/18 10:12:38;;;;;;;15.87;12.10;;;;;;;;;;4988429;28;20284;-80
2024/02/18 10:15:08;;;;;;;17.57;14.53;;;;;;;;;;4994325;28;20228;-80
2024/02/18 10:17:36;;;;;;;32.17;27.70;;;;;;;;;;4980781;28;20220;-80
2024/02/18 10:20:05;;;;;;;13.47;12.00;;;;;;;;;;5000369;28;20363;-81
2024/02/18 10:22:31;;;;;;;13.40;10.87;;;;;;;;;;4966675;28;20236;-79
2024/02/18 10:24:56;;;;;;;12.53;10.97;;;;;;;;;;5001028;28;20224;-78
2024/02/18 10:27:22;;;;;;;10.67;9.57;;;;;;;;;;5004579;28;20212;-81
2024/02/18 10:29:48;;;;;;;14.53;10.93;;;;;;;;;;4999172;28;20259;-80
2024/02/18 10:32:16;;;;;;;14.43;10.63;;;;;;;;;;4965085;28;20258;-81
2024/02/18 10:34:43;;;;;;;13.30;10.47;;;;;;;;;;4984792;28;20939;-80
2024/02/18 10:37:37;;;;;;;14.07;12.37;;;;;;;;;;4990742;28;20772;-80
2024/02/18 10:40:20;;;;;;;14.00;11.73;;;;;;;;;;4979326;28;20307;-81
2024/02/18 10:42:51;;;;;;;13.10;10.73;;;;;;;;;;5012556;28;20220;-82
2024/02/18 10:45:16;;;;;;;53.67;44.50;;;;;;;;;;4980367;28;20228;-81
2024/02/18 10:47:44;;;;;;;12.97;10.07;;;;;;;;;;5001131;28;20796;-81
2024/02/18 10:50:10;;;;;;;36.53;24.00;;;;;;;;;;5003034;28;20255;-80
2024/02/18 10:52:46;;;;;;;15.60;11.03;;;;;;;;;;5000509;28;20216;-82
2024/02/18 10:55:17;;;;;;;12.07;10.10;;;;;;;;;;5011452;28;20220;-81
2024/02/18 10:58:09;;;;;;;10.93;8.30;;;;;;;;;;4999613;28;20351;-81
2024/02/18 11:00:38;;;;;;;11.27;8.70;;;;;;;;;;5000566;28;20228;-81
2024/02/18 11:03:16;;;;;;;10.97;8.60;;;;;;;;;;4957284;28;20279;-81
2024/02/18 11:05:42;;;;;;;7.90;7.10;;;;;;;;;;5013273;28;20359;-81
2024/02/18 11:08:07;;;;;;;8.60;6.93;;;;;;;;;;4980017;28;20262;-81
2024/02/18 11:10:34;;;;;;;6.87;5.87;;;;;;;;;;4987563;28;20220;-80
2024/02/18 11:13:00;;;;;;;7.90;6.00;;;;;;;;;;4971216;28;20239;-82
2024/02/18 11:15:26;;;;;;;7.00;5.93;;;;;;;;;;4987807;28;20456;-82
2024/02/18 11:17:55;;;;;;;6.47;5.60;;;;;;;;;;4993494;28;20217;-80
2024/02/18 11:20:20;;;;;;;8.10;5.80;;;;;;;;;;4987993;28;20227;-81
2024/02/18 11:22:49;;;;;;;8.73;5.70;;;;;;;;;;4987800;28;20232;-81
2024/02/18 11:25:15;;;;;;;7.03;6.03;;;;;;;;;;5003588;28;20236;-79
2024/02/18 11:27:43;;;;;;;6.83;6.23;;;;;;;;;;4988244;28;20228;-83
2024/02/18 11:30:09;;;;;;;8.20;6.43;;;;;;;;;;5000623;28;20224;-82
2024/02/18 11:32:37;;;;;;;8.80;6.37;;;;;;;;;;4982082;28;20229;-82
2024/02/18 11:35:15;;;;;;;7.20;6.47;;;;;;;;;;4991331;28;20461;-80
2024/02/18 11:37:41;;;;;;;8.00;6.37;;;;;;;;;;4992163;28;20244;-79
2024/02/18 11:40:12;;;;;;;7.80;6.67;;;;;;;;;;4997507;28;20276;-78
2024/02/18 11:42:38;;;;;;;7.63;6.73;;;;;;;;;;4999024;28;20224;-82
2024/02/18 11:45:13;;;;;;;7.83;6.67;;;;;;;;;;4994946;28;20316;-81
2024/02/18 11:47:47;;;;;;;7.87;6.97;;;;;;;;;;5022510;28;20255;-81
2024/02/18 11:50:13;;;;;;;8.83;7.10;;;;;;;;;;4977965;28;20275;-83
2024/02/18 11:52:43;;;;;;;8.30;7.43;;;;;;;;;;4986069;28;20224;-81
2024/02/18 11:55:15;;;;;;;8.13;7.33;;;;;;;;;;4978928;28;20677;-82
2024/02/18 11:57:41;;;;;;;10.23;7.50;;;;;;;;;;4961232;28;20319;-82
2024/02/18 12:00:12;;;;;;;8.43;7.50;;;;;;;;;;4998829;28;20287;-81
2024/02/18 12:02:39;;;;;;;8.27;7.30;;;;;;;;;;4982625;28;20650;-81
2024/02/18 12:05:10;;;;;;;9.63;7.63;;;;;;;;;;4979808;28;20237;-80
2024/02/18 12:07:38;;;;;;;9.30;7.77;;;;;;;;;;4984695;28;20231;-81
2024/02/18 12:10:06;;;;;;;8.70;7.77;;;;;;;;;;5005601;28;20274;-79
2024/02/18 12:12:32;;;;;;;11.23;8.47;;;;;;;;;;5015610;28;20244;-80
2024/02/18 12:14:58;;;;;;;11.07;8.10;;;;;;;;;;4957609;28;20706;-81
2024/02/18 12:17:23;;;;;;;10.60;8.40;;;;;;;;;;4997346;28;20224;-80
2024/02/18 12:19:52;;;;;;;9.33;8.33;;;;;;;;;;4978087;28;20590;-81
2024/02/18 12:22:25;;;;;;;10.10;9.07;;;;;;;;;;4980706;28;20816;-82
2024/02/18 12:24:53;;;;;;;12.40;10.80;;;;;;;;;;4998329;28;20236;-81
2024/02/18 12:27:19;;;;;;;11.53;9.53;;;;;;;;;;4966599;28;20220;-81
2024/02/18 12:29:55;;;;;;;12.93;10.00;;;;;;;;;;4997165;28;20232;-81
2024/02/18 12:32:21;;;;;;;11.33;9.20;;;;;;;;;;4996125;28;20226;-81
2024/02/18 12:34:47;;;;;;;11.23;9.47;;;;;;;;;;4964996;28;20224;-81
2024/02/18 12:37:13;;;;;;;11.33;9.70;;;;;;;;;;4985100;28;20247;-83
2024/02/18 12:39:39;;;;;;;12.33;10.07;;;;;;;;;;4977807;28;20236;-82
2024/02/18 12:42:06;;;;;;;11.03;9.77;;;;;;;;;;4992779;28;20678;-83
2024/02/18 12:44:34;;;;;;;11.73;9.77;;;;;;;;;;4974248;28;20264;-81
2024/02/18 12:47:00;;;;;;;12.60;10.33;;;;;;;;;;4991840;28;20231;-82
2024/02/18 12:49:29;;;;;;;10.63;9.53;;;;;;;;;;4982571;28;20291;-83
2024/02/18 12:52:10;;;;;;;12.50;10.40;;;;;;;;;;4982553;28;20277;-82
2024/02/18 12:54:36;;;;;;;13.67;10.97;;;;;;;;;;4976247;28;20274;-82
2024/02/18 12:57:02;;;;;;;14.83;10.23;;;;;;;;;;4995787;28;20224;-84
2024/02/18 12:59:33;;;;;;;13.17;10.53;;;;;;;;;;4973536;28;20305;-83
2024/02/18 13:01:58;;;;;;;13.40;10.03;;;;;;;;;;4994043;28;20762;-84
2024/02/18 13:04:24;;;;;;;14.23;10.67;;;;;;;;;;4980829;28;20224;-84
2024/02/18 13:07:04;;;;;;;12.93;10.73;;;;;;;;;;4998177;28;20227;-84
2024/02/18 13:09:32;;;;;;;15.53;11.17;;;;;;;;;;4986321;28;20314;-84
2024/02/18 13:11:59;;;;;;;13.13;10.97;;;;;;;;;;4999425;28;20217;-84
2024/02/18 13:14:24;;;;;;;14.57;11.37;;;;;;;;;;4981594;28;20242;-85
2024/02/18 13:16:50;;;;;;;13.60;11.43;;;;;;;;;;4992384;28;20302;-84
2024/02/18 13:19:15;;;;;;;12.93;11.50;;;;;;;;;;4993286;28;20230;-84
2024/02/18 13:21:45;;;;;;;15.33;11.47;;;;;;;;;;4976513;28;20580;-84
2024/02/18 13:24:15;;;;;;;17.20;11.60;;;;;;;;;;4981532;28;20698;-84
2024/02/18 13:26:43;;;;;;;13.40;11.33;;;;;;;;;;4987877;28;20292;-84
2024/02/18 13:29:09;;;;;;;15.10;11.57;;;;;;;;;;4982282;28;20221;-83
2024/02/18 13:31:34;;;;;;;13.87;11.47;;;;;;;;;;4965653;28;20234;-84
2024/02/18 13:34:00;;;;;;;13.00;11.53;;;;;;;;;;4975013;28;20224;-81
2024/02/18 13:36:26;;;;;;;15.23;10.93;;;;;;;;;;5000370;28;20297;-84
2024/02/18 13:38:54;;;;;;;17.43;11.93;;;;;;;;;;4989193;28;20212;-83
2024/02/18 13:41:20;;;;;;;15.63;12.07;;;;;;;;;;5009215;28;20235;-82
2024/02/18 13:43:47;;;;;;;14.80;11.90;;;;;;;;;;5002666;28;20263;-83
2024/02/18 13:46:15;;;;;;;18.60;14.23;;;;;;;;;;5025532;28;20291;-82
2024/02/18 13:48:46;;;;;;;18.00;12.70;;;;;;;;;;4984396;28;20228;-84
2024/02/18 13:51:11;;;;;;;16.70;13.10;;;;;;;;;;4982304;28;20729;-83
2024/02/18 13:53:40;;;;;;;15.83;12.53;;;;;;;;;;4980592;28;20220;-84
2024/02/18 13:56:05;;;;;;;18.10;13.20;;;;;;;;;;4974804;28;20285;-84
2024/02/18 13:58:33;;;;;;;16.53;13.97;;;;;;;;;;4961067;28;21032;-81
2024/02/18 14:01:01;;;;;;;19.50;13.67;;;;;;;;;;4991258;28;20591;-84
2024/02/18 14:03:27;;;;;;;20.70;13.53;;;;;;;;;;4988614;28;20223;-85
2024/02/18 14:05:52;;;;;;;21.03;13.87;;;;;;;;;;4995966;28;20231;-87
2024/02/18 14:08:21;;;;;;;19.60;14.43;;;;;;;;;;4959316;28;20224;-84
2024/02/18 14:10:48;;;;;;;18.97;13.93;;;;;;;;;;4971583;28;20725;-83
2024/02/18 14:13:15;;;;;;;18.07;13.77;;;;;;;;;;4994194;28;20223;-85
2024/02/18 14:15:40;;;;;;;19.13;13.83;;;;;;;;;;4985999;28;20216;-81
2024/02/18 14:18:08;;;;;;;20.03;14.37;;;;;;;;;;4984338;28;20223;-83
2024/02/18 14:20:34;;;;;;;18.53;14.17;;;;;;;;;;5013273;28;20729;-84
2024/02/18 14:23:02;;;;;;;18.43;13.53;;;;;;;;;;4963662;28;20221;-86
2024/02/18 14:25:28;;;;;;;21.40;14.07;;;;;;;;;;4981742;28;20243;-84
2024/02/18 14:28:01;;;;;;;21.97;14.37;;;;;;;;;;4962346;28;20359;-84
2024/02/18 14:30:30;;;;;;;18.07;13.73;;;;;;;;;;4966165;28;20673;-85